sensor_id;sensor_type;location;lat;lon;timestamp;P1;durP1;ratioP1;P2;durP2;ratioP2
75400;SDS011;63974;47.538;18.972;2023-08-30T00:02:41;2.77;;;1.40;;
75400;SDS011;63974;47.538;18.972;2023-08-30T00:05:44;1.55;;;1.17;;
75400;SDS011;63974;47.538;18.972;2023-08-30T00:08:47;2.75;;;1.30;;
75400;SDS011;63974;47.538;18.972;2023-08-30T00:11:49;1.85;;;1.33;;
75400;SDS011;63974;47.538;18.972;2023-08-30T00:14:52;2.53;;;1.30;;
75400;SDS011;63974;47.538;18.972;2023-08-30T00:17:55;2.13;;;1.40;;
75400;SDS011;63974;47.538;18.972;2023-08-30T00:20:58;1.52;;;1.20;;
75400;SDS011;63974;47.538;18.972;2023-08-30T00:24:01;3.25;;;0.82;;
75400;SDS011;63974;47.538;18.972;2023-08-30T00:27:03;1.88;;;1.25;;
75400;SDS011;63974;47.538;18.972;2023-08-30T00:30:06;2.60;;;1.30;;
75400;SDS011;63974;47.538;18.972;2023-08-30T00:33:13;2.00;;;1.07;;
75400;SDS011;63974;47.538;18.972;2023-08-30T00:36:16;3.10;;;1.20;;
75400;SDS011;63974;47.538;18.972;2023-08-30T00:39:20;2.38;;;1.50;;
75400;SDS011;63974;47.538;18.972;2023-08-30T00:42:23;3.42;;;1.30;;
75400;SDS011;63974;47.538;18.972;2023-08-30T00:45:26;2.75;;;1.40;;
75400;SDS011;63974;47.538;18.972;2023-08-30T00:48:29;1.60;;;1.17;;
75400;SDS011;63974;47.538;18.972;2023-08-30T00:51:32;3.40;;;1.35;;
75400;SDS011;63974;47.538;18.972;2023-08-30T00:54:36;2.65;;;1.45;;
75400;SDS011;63974;47.538;18.972;2023-08-30T00:57:40;2.80;;;1.30;;
75400;SDS011;63974;47.538;18.972;2023-08-30T01:00:43;3.70;;;1.13;;
75400;SDS011;63974;47.538;18.972;2023-08-30T01:03:47;2.67;;;1.50;;
75400;SDS011;63974;47.538;18.972;2023-08-30T01:06:50;2.35;;;1.58;;
75400;SDS011;63974;47.538;18.972;2023-08-30T01:09:53;3.28;;;1.40;;
75400;SDS011;63974;47.538;18.972;2023-08-30T01:12:58;2.40;;;1.23;;
75400;SDS011;63974;47.538;18.972;2023-08-30T01:16:08;3.08;;;1.80;;
75400;SDS011;63974;47.538;18.972;2023-08-30T01:22:33;3.70;;;2.13;;
75400;SDS011;63974;47.538;18.972;2023-08-30T01:29:24;2.63;;;1.83;;
75400;SDS011;63974;47.538;18.972;2023-08-30T01:32:29;3.53;;;2.47;;
75400;SDS011;63974;47.538;18.972;2023-08-30T01:35:33;8.43;;;2.30;;
75400;SDS011;63974;47.538;18.972;2023-08-30T01:38:39;3.28;;;1.90;;
75400;SDS011;63974;47.538;18.972;2023-08-30T01:41:42;3.35;;;2.20;;
75400;SDS011;63974;47.538;18.972;2023-08-30T01:44:46;6.47;;;2.70;;
75400;SDS011;63974;47.538;18.972;2023-08-30T01:47:49;3.47;;;2.33;;
75400;SDS011;63974;47.538;18.972;2023-08-30T01:50:55;3.20;;;1.90;;
75400;SDS011;63974;47.538;18.972;2023-08-30T01:54:01;4.93;;;2.88;;
75400;SDS011;63974;47.538;18.972;2023-08-30T01:57:06;3.97;;;2.13;;
75400;SDS011;63974;47.538;18.972;2023-08-30T02:00:09;4.00;;;2.65;;
75400;SDS011;63974;47.538;18.972;2023-08-30T02:03:18;4.57;;;2.47;;
75400;SDS011;63974;47.538;18.972;2023-08-30T02:06:22;3.63;;;2.30;;
75400;SDS011;63974;47.538;18.972;2023-08-30T02:09:39;3.65;;;2.28;;
75400;SDS011;63974;47.538;18.972;2023-08-30T02:12:52;5.78;;;2.67;;
75400;SDS011;63974;47.538;18.972;2023-08-30T02:15:56;4.57;;;2.45;;
75400;SDS011;63974;47.538;18.972;2023-08-30T02:19:03;4.00;;;2.75;;
75400;SDS011;63974;47.538;18.972;2023-08-30T02:22:07;4.67;;;3.17;;
75400;SDS011;63974;47.538;18.972;2023-08-30T02:25:09;3.65;;;2.33;;
75400;SDS011;63974;47.538;18.972;2023-08-30T02:28:12;3.85;;;2.67;;
75400;SDS011;63974;47.538;18.972;2023-08-30T02:31:15;5.32;;;2.60;;
75400;SDS011;63974;47.538;18.972;2023-08-30T02:34:20;4.43;;;2.67;;
75400;SDS011;63974;47.538;18.972;2023-08-30T02:37:23;4.10;;;2.70;;
75400;SDS011;63974;47.538;18.972;2023-08-30T02:40:26;5.07;;;3.25;;
75400;SDS011;63974;47.538;18.972;2023-08-30T02:43:29;4.95;;;3.35;;
75400;SDS011;63974;47.538;18.972;2023-08-30T02:46:32;6.50;;;3.72;;
75400;SDS011;63974;47.538;18.972;2023-08-30T02:49:34;7.57;;;4.10;;
75400;SDS011;63974;47.538;18.972;2023-08-30T02:52:37;7.53;;;4.10;;
75400;SDS011;63974;47.538;18.972;2023-08-30T02:55:40;5.72;;;3.53;;
75400;SDS011;63974;47.538;18.972;2023-08-30T02:58:43;6.97;;;3.67;;
75400;SDS011;63974;47.538;18.972;2023-08-30T03:01:45;4.88;;;3.28;;
75400;SDS011;63974;47.538;18.972;2023-08-30T03:04:50;5.77;;;3.20;;
75400;SDS011;63974;47.538;18.972;2023-08-30T03:07:55;5.30;;;3.30;;
75400;SDS011;63974;47.538;18.972;2023-08-30T03:11:11;6.20;;;3.45;;
75400;SDS011;63974;47.538;18.972;2023-08-30T03:14:33;5.63;;;3.33;;
75400;SDS011;63974;47.538;18.972;2023-08-30T03:17:35;4.70;;;3.42;;
75400;SDS011;63974;47.538;18.972;2023-08-30T03:20:39;4.33;;;3.23;;
75400;SDS011;63974;47.538;18.972;2023-08-30T03:23:42;4.10;;;3.00;;
75400;SDS011;63974;47.538;18.972;2023-08-30T03:26:45;5.10;;;3.08;;
75400;SDS011;63974;47.538;18.972;2023-08-30T03:29:47;4.07;;;2.67;;
75400;SDS011;63974;47.538;18.972;2023-08-30T03:32:50;4.90;;;3.00;;
75400;SDS011;63974;47.538;18.972;2023-08-30T03:35:53;5.43;;;3.23;;
75400;SDS011;63974;47.538;18.972;2023-08-30T03:38:56;6.70;;;3.47;;
75400;SDS011;63974;47.538;18.972;2023-08-30T03:42:08;5.28;;;3.20;;
75400;SDS011;63974;47.538;18.972;2023-08-30T03:45:12;4.47;;;3.10;;
75400;SDS011;63974;47.538;18.972;2023-08-30T03:48:15;6.35;;;3.20;;
75400;SDS011;63974;47.538;18.972;2023-08-30T03:51:19;5.38;;;3.60;;
75400;SDS011;63974;47.538;18.972;2023-08-30T03:54:23;4.90;;;2.97;;
75400;SDS011;63974;47.538;18.972;2023-08-30T03:57:27;6.88;;;4.03;;
75400;SDS011;63974;47.538;18.972;2023-08-30T04:00:30;5.68;;;3.40;;
75400;SDS011;63974;47.538;18.972;2023-08-30T04:03:33;4.38;;;3.33;;
75400;SDS011;63974;47.538;18.972;2023-08-30T04:06:36;5.40;;;3.40;;
75400;SDS011;63974;47.538;18.972;2023-08-30T04:09:38;5.43;;;3.50;;
75400;SDS011;63974;47.538;18.972;2023-08-30T04:12:41;4.57;;;2.83;;
75400;SDS011;63974;47.538;18.972;2023-08-30T04:15:45;5.32;;;3.60;;
75400;SDS011;63974;47.538;18.972;2023-08-30T04:18:48;4.20;;;2.95;;
75400;SDS011;63974;47.538;18.972;2023-08-30T04:21:50;4.57;;;3.27;;
75400;SDS011;63974;47.538;18.972;2023-08-30T04:24:53;6.23;;;3.80;;
75400;SDS011;63974;47.538;18.972;2023-08-30T04:27:56;7.90;;;4.10;;
75400;SDS011;63974;47.538;18.972;2023-08-30T04:31:00;7.50;;;3.67;;
75400;SDS011;63974;47.538;18.972;2023-08-30T04:34:03;8.90;;;4.32;;
75400;SDS011;63974;47.538;18.972;2023-08-30T04:37:07;7.53;;;4.53;;
75400;SDS011;63974;47.538;18.972;2023-08-30T04:40:10;8.00;;;4.60;;
75400;SDS011;63974;47.538;18.972;2023-08-30T04:43:13;8.13;;;4.65;;
75400;SDS011;63974;47.538;18.972;2023-08-30T04:46:17;10.13;;;5.00;;
75400;SDS011;63974;47.538;18.972;2023-08-30T04:49:20;10.25;;;4.75;;
75400;SDS011;63974;47.538;18.972;2023-08-30T04:52:23;8.10;;;4.80;;
75400;SDS011;63974;47.538;18.972;2023-08-30T04:55:29;6.80;;;4.17;;
75400;SDS011;63974;47.538;18.972;2023-08-30T04:58:34;7.95;;;4.35;;
75400;SDS011;63974;47.538;18.972;2023-08-30T05:01:37;7.07;;;4.43;;
75400;SDS011;63974;47.538;18.972;2023-08-30T05:04:41;7.55;;;4.18;;
75400;SDS011;63974;47.538;18.972;2023-08-30T05:07:44;8.57;;;4.57;;
75400;SDS011;63974;47.538;18.972;2023-08-30T05:10:48;7.37;;;4.60;;
75400;SDS011;63974;47.538;18.972;2023-08-30T05:13:52;6.00;;;4.00;;
75400;SDS011;63974;47.538;18.972;2023-08-30T05:16:55;9.23;;;4.70;;
75400;SDS011;63974;47.538;18.972;2023-08-30T05:19:58;14.18;;;5.65;;
75400;SDS011;63974;47.538;18.972;2023-08-30T05:23:00;7.32;;;4.05;;
75400;SDS011;63974;47.538;18.972;2023-08-30T05:26:03;7.93;;;4.50;;
75400;SDS011;63974;47.538;18.972;2023-08-30T05:29:06;6.70;;;4.50;;
75400;SDS011;63974;47.538;18.972;2023-08-30T05:32:09;6.30;;;4.00;;
75400;SDS011;63974;47.538;18.972;2023-08-30T05:35:38;7.20;;;4.22;;
75400;SDS011;63974;47.538;18.972;2023-08-30T05:39:19;8.27;;;4.00;;
75400;SDS011;63974;47.538;18.972;2023-08-30T05:42:25;8.57;;;4.57;;
75400;SDS011;63974;47.538;18.972;2023-08-30T05:45:30;7.40;;;3.95;;
75400;SDS011;63974;47.538;18.972;2023-08-30T05:48:33;8.90;;;4.22;;
75400;SDS011;63974;47.538;18.972;2023-08-30T06:04:43;8.10;;;5.00;;
75400;SDS011;63974;47.538;18.972;2023-08-30T06:07:46;5.40;;;4.25;;
75400;SDS011;63974;47.538;18.972;2023-08-30T06:10:49;6.68;;;4.38;;
75400;SDS011;63974;47.538;18.972;2023-08-30T06:13:51;7.88;;;4.82;;
75400;SDS011;63974;47.538;18.972;2023-08-30T06:16:54;7.35;;;5.05;;
75400;SDS011;63974;47.538;18.972;2023-08-30T06:19:57;7.63;;;4.70;;
75400;SDS011;63974;47.538;18.972;2023-08-30T06:23:02;8.43;;;5.05;;
75400;SDS011;63974;47.538;18.972;2023-08-30T06:26:05;7.55;;;5.05;;
75400;SDS011;63974;47.538;18.972;2023-08-30T06:29:08;9.20;;;5.60;;
75400;SDS011;63974;47.538;18.972;2023-08-30T06:32:11;8.52;;;5.22;;
75400;SDS011;63974;47.538;18.972;2023-08-30T06:35:14;14.03;;;6.37;;
75400;SDS011;63974;47.538;18.972;2023-08-30T06:38:19;7.97;;;4.85;;
75400;SDS011;63974;47.538;18.972;2023-08-30T06:41:26;8.73;;;4.93;;
75400;SDS011;63974;47.538;18.972;2023-08-30T06:44:29;7.10;;;4.93;;
75400;SDS011;63974;47.538;18.972;2023-08-30T06:47:36;7.95;;;5.50;;
75400;SDS011;63974;47.538;18.972;2023-08-30T06:50:39;8.03;;;5.27;;
75400;SDS011;63974;47.538;18.972;2023-08-30T06:53:44;9.20;;;4.47;;
75400;SDS011;63974;47.538;18.972;2023-08-30T06:57:00;6.82;;;4.72;;
75400;SDS011;63974;47.538;18.972;2023-08-30T07:00:06;7.78;;;4.80;;
75400;SDS011;63974;47.538;18.972;2023-08-30T07:03:12;10.03;;;4.83;;
75400;SDS011;63974;47.538;18.972;2023-08-30T07:06:16;6.53;;;4.23;;
75400;SDS011;63974;47.538;18.972;2023-08-30T07:09:19;8.27;;;4.18;;
75400;SDS011;63974;47.538;18.972;2023-08-30T07:12:25;6.03;;;4.25;;
75400;SDS011;63974;47.538;18.972;2023-08-30T07:15:28;6.72;;;5.20;;
75400;SDS011;63974;47.538;18.972;2023-08-30T07:18:31;5.83;;;4.43;;
75400;SDS011;63974;47.538;18.972;2023-08-30T07:21:36;5.90;;;3.30;;
75400;SDS011;63974;47.538;18.972;2023-08-30T07:24:41;6.78;;;4.78;;
75400;SDS011;63974;47.538;18.972;2023-08-30T07:27:45;7.10;;;5.07;;
75400;SDS011;63974;47.538;18.972;2023-08-30T07:30:48;6.95;;;4.72;;
75400;SDS011;63974;47.538;18.972;2023-08-30T07:33:52;6.97;;;4.70;;
75400;SDS011;63974;47.538;18.972;2023-08-30T07:36:56;5.93;;;4.33;;
75400;SDS011;63974;47.538;18.972;2023-08-30T07:40:00;5.90;;;4.38;;
75400;SDS011;63974;47.538;18.972;2023-08-30T07:43:03;6.90;;;4.35;;
75400;SDS011;63974;47.538;18.972;2023-08-30T07:46:06;5.68;;;4.55;;
75400;SDS011;63974;47.538;18.972;2023-08-30T07:49:11;4.80;;;4.13;;
75400;SDS011;63974;47.538;18.972;2023-08-30T07:52:16;5.40;;;4.30;;
75400;SDS011;63974;47.538;18.972;2023-08-30T07:55:22;7.13;;;4.28;;
75400;SDS011;63974;47.538;18.972;2023-08-30T07:58:26;4.78;;;3.63;;
75400;SDS011;63974;47.538;18.972;2023-08-30T08:01:29;5.00;;;4.05;;
75400;SDS011;63974;47.538;18.972;2023-08-30T08:04:32;6.30;;;4.07;;
75400;SDS011;63974;47.538;18.972;2023-08-30T08:07:38;5.90;;;4.00;;
75400;SDS011;63974;47.538;18.972;2023-08-30T08:10:42;6.18;;;4.50;;
75400;SDS011;63974;47.538;18.972;2023-08-30T08:13:45;6.63;;;4.95;;
75400;SDS011;63974;47.538;18.972;2023-08-30T08:16:48;7.22;;;4.70;;
75400;SDS011;63974;47.538;18.972;2023-08-30T09:02:40;5.60;;;3.97;;
75400;SDS011;63974;47.538;18.972;2023-08-30T09:05:45;6.60;;;4.47;;
75400;SDS011;63974;47.538;18.972;2023-08-30T09:08:48;7.63;;;5.50;;
75400;SDS011;63974;47.538;18.972;2023-08-30T09:11:51;4.85;;;4.43;;
75400;SDS011;63974;47.538;18.972;2023-08-30T09:14:55;4.60;;;4.20;;
75400;SDS011;63974;47.538;18.972;2023-08-30T09:17:58;4.53;;;4.13;;
75400;SDS011;63974;47.538;18.972;2023-08-30T09:21:04;4.33;;;3.93;;
75400;SDS011;63974;47.538;18.972;2023-08-30T09:24:16;4.13;;;3.70;;
75400;SDS011;63974;47.538;18.972;2023-08-30T09:27:19;3.95;;;2.92;;
75400;SDS011;63974;47.538;18.972;2023-08-30T09:30:21;4.03;;;3.63;;
75400;SDS011;63974;47.538;18.972;2023-08-30T09:33:31;4.97;;;3.60;;
75400;SDS011;63974;47.538;18.972;2023-08-30T09:39:37;6.27;;;4.20;;
75400;SDS011;63974;47.538;18.972;2023-08-30T09:42:51;4.65;;;4.13;;
75400;SDS011;63974;47.538;18.972;2023-08-30T09:46:12;3.70;;;3.40;;
75400;SDS011;63974;47.538;18.972;2023-08-30T09:49:17;3.63;;;3.30;;
75400;SDS011;63974;47.538;18.972;2023-08-30T09:52:23;3.43;;;3.13;;
75400;SDS011;63974;47.538;18.972;2023-08-30T09:55:29;3.87;;;3.33;;
75400;SDS011;63974;47.538;18.972;2023-08-30T09:58:32;3.05;;;2.72;;
75400;SDS011;63974;47.538;18.972;2023-08-30T10:01:35;3.80;;;3.40;;
75400;SDS011;63974;47.538;18.972;2023-08-30T10:04:38;3.67;;;3.35;;
75400;SDS011;63974;47.538;18.972;2023-08-30T10:07:43;2.73;;;2.53;;
75400;SDS011;63974;47.538;18.972;2023-08-30T10:10:47;3.37;;;2.70;;
75400;SDS011;63974;47.538;18.972;2023-08-30T10:13:52;3.83;;;3.40;;
75400;SDS011;63974;47.538;18.972;2023-08-30T10:17:01;3.00;;;2.70;;
75400;SDS011;63974;47.538;18.972;2023-08-30T10:20:05;2.65;;;2.45;;
75400;SDS011;63974;47.538;18.972;2023-08-30T10:23:09;3.80;;;3.20;;
75400;SDS011;63974;47.538;18.972;2023-08-30T10:26:13;4.03;;;3.30;;
75400;SDS011;63974;47.538;18.972;2023-08-30T10:29:18;2.78;;;2.55;;
75400;SDS011;63974;47.538;18.972;2023-08-30T10:32:22;4.88;;;2.50;;
75400;SDS011;63974;47.538;18.972;2023-08-30T10:35:25;3.15;;;2.50;;
75400;SDS011;63974;47.538;18.972;2023-08-30T10:38:28;4.50;;;2.77;;
75400;SDS011;63974;47.538;18.972;2023-08-30T10:41:31;3.37;;;3.07;;
75400;SDS011;63974;47.538;18.972;2023-08-30T10:44:34;3.40;;;2.20;;
75400;SDS011;63974;47.538;18.972;2023-08-30T10:47:46;2.75;;;2.55;;
75400;SDS011;63974;47.538;18.972;2023-08-30T10:50:56;6.78;;;3.08;;
75400;SDS011;63974;47.538;18.972;2023-08-30T10:54:00;3.80;;;3.47;;
75400;SDS011;63974;47.538;18.972;2023-08-30T10:57:02;4.53;;;3.10;;
75400;SDS011;63974;47.538;18.972;2023-08-30T11:03:16;3.28;;;2.97;;
75400;SDS011;63974;47.538;18.972;2023-08-30T11:06:19;3.25;;;2.97;;
75400;SDS011;63974;47.538;18.972;2023-08-30T11:09:24;2.73;;;2.40;;
75400;SDS011;63974;47.538;18.972;2023-08-30T11:12:27;3.27;;;2.60;;
75400;SDS011;63974;47.538;18.972;2023-08-30T11:15:32;2.50;;;2.30;;
75400;SDS011;63974;47.538;18.972;2023-08-30T11:18:38;3.00;;;2.72;;
75400;SDS011;63974;47.538;18.972;2023-08-30T11:21:44;3.33;;;3.10;;
75400;SDS011;63974;47.538;18.972;2023-08-30T11:24:48;4.53;;;2.70;;
75400;SDS011;63974;47.538;18.972;2023-08-30T11:28:01;2.80;;;2.57;;
75400;SDS011;63974;47.538;18.972;2023-08-30T11:31:05;4.10;;;2.92;;
75400;SDS011;63974;47.538;18.972;2023-08-30T11:34:08;2.53;;;2.33;;
75400;SDS011;63974;47.538;18.972;2023-08-30T11:37:10;3.72;;;3.15;;
75400;SDS011;63974;47.538;18.972;2023-08-30T11:40:14;2.50;;;2.27;;
75400;SDS011;63974;47.538;18.972;2023-08-30T11:43:17;3.50;;;3.20;;
75400;SDS011;63974;47.538;18.972;2023-08-30T11:46:22;3.72;;;2.65;;
75400;SDS011;63974;47.538;18.972;2023-08-30T11:49:27;2.90;;;2.63;;
75400;SDS011;63974;47.538;18.972;2023-08-30T11:52:30;2.92;;;2.72;;
75400;SDS011;63974;47.538;18.972;2023-08-30T11:55:33;3.10;;;2.60;;
75400;SDS011;63974;47.538;18.972;2023-08-30T11:58:37;3.03;;;2.70;;
75400;SDS011;63974;47.538;18.972;2023-08-30T12:01:40;3.28;;;2.97;;
75400;SDS011;63974;47.538;18.972;2023-08-30T12:04:43;4.40;;;3.40;;
75400;SDS011;63974;47.538;18.972;2023-08-30T12:07:48;8.48;;;3.72;;
75400;SDS011;63974;47.538;18.972;2023-08-30T12:10:51;3.20;;;2.93;;
75400;SDS011;63974;47.538;18.972;2023-08-30T12:14:01;3.90;;;2.93;;
75400;SDS011;63974;47.538;18.972;2023-08-30T12:17:05;6.38;;;3.35;;
75400;SDS011;63974;47.538;18.972;2023-08-30T12:20:14;5.18;;;2.90;;
75400;SDS011;63974;47.538;18.972;2023-08-30T12:23:19;6.53;;;2.97;;
75400;SDS011;63974;47.538;18.972;2023-08-30T12:26:32;4.13;;;3.20;;
75400;SDS011;63974;47.538;18.972;2023-08-30T12:29:40;3.27;;;2.97;;
75400;SDS011;63974;47.538;18.972;2023-08-30T12:32:43;4.15;;;3.60;;
75400;SDS011;63974;47.538;18.972;2023-08-30T12:35:47;4.25;;;2.95;;
75400;SDS011;63974;47.538;18.972;2023-08-30T12:38:50;4.75;;;2.60;;
75400;SDS011;63974;47.538;18.972;2023-08-30T12:41:53;3.47;;;2.83;;
75400;SDS011;63974;47.538;18.972;2023-08-30T12:44:56;3.20;;;3.00;;
75400;SDS011;63974;47.538;18.972;2023-08-30T12:47:59;3.53;;;3.33;;
75400;SDS011;63974;47.538;18.972;2023-08-30T12:51:02;4.63;;;3.38;;
75400;SDS011;63974;47.538;18.972;2023-08-30T12:54:06;3.30;;;3.05;;
75400;SDS011;63974;47.538;18.972;2023-08-30T12:57:08;4.37;;;3.50;;
75400;SDS011;63974;47.538;18.972;2023-08-30T13:00:12;3.40;;;2.60;;
75400;SDS011;63974;47.538;18.972;2023-08-30T13:03:15;2.60;;;2.40;;
75400;SDS011;63974;47.538;18.972;2023-08-30T13:06:18;6.85;;;2.47;;
75400;SDS011;63974;47.538;18.972;2023-08-30T13:09:21;3.13;;;2.83;;
75400;SDS011;63974;47.538;18.972;2023-08-30T13:12:23;3.63;;;2.60;;
75400;SDS011;63974;47.538;18.972;2023-08-30T13:15:26;3.30;;;2.93;;
75400;SDS011;63974;47.538;18.972;2023-08-30T13:18:29;3.67;;;2.80;;
75400;SDS011;63974;47.538;18.972;2023-08-30T13:21:32;3.92;;;2.65;;
75400;SDS011;63974;47.538;18.972;2023-08-30T13:24:43;2.65;;;2.45;;
75400;SDS011;63974;47.538;18.972;2023-08-30T13:27:46;3.70;;;3.03;;
75400;SDS011;63974;47.538;18.972;2023-08-30T13:30:49;9.53;;;3.83;;
75400;SDS011;63974;47.538;18.972;2023-08-30T13:33:54;4.55;;;3.28;;
75400;SDS011;63974;47.538;18.972;2023-08-30T13:36:56;3.13;;;2.70;;
75400;SDS011;63974;47.538;18.972;2023-08-30T13:39:59;3.88;;;3.30;;
75400;SDS011;63974;47.538;18.972;2023-08-30T13:43:02;4.53;;;3.80;;
75400;SDS011;63974;47.538;18.972;2023-08-30T13:46:05;5.90;;;3.80;;
75400;SDS011;63974;47.538;18.972;2023-08-30T13:49:08;6.43;;;3.78;;
75400;SDS011;63974;47.538;18.972;2023-08-30T13:52:11;5.93;;;3.78;;
75400;SDS011;63974;47.538;18.972;2023-08-30T13:55:14;6.80;;;3.50;;
75400;SDS011;63974;47.538;18.972;2023-08-30T13:58:17;5.57;;;3.60;;
75400;SDS011;63974;47.538;18.972;2023-08-30T14:01:19;3.93;;;3.23;;
75400;SDS011;63974;47.538;18.972;2023-08-30T14:04:23;3.58;;;3.20;;
75400;SDS011;63974;47.538;18.972;2023-08-30T14:07:27;3.50;;;2.95;;
75400;SDS011;63974;47.538;18.972;2023-08-30T14:10:29;3.92;;;3.15;;
75400;SDS011;63974;47.538;18.972;2023-08-30T14:13:32;5.33;;;3.10;;
75400;SDS011;63974;47.538;18.972;2023-08-30T14:16:35;3.63;;;2.73;;
75400;SDS011;63974;47.538;18.972;2023-08-30T14:19:39;4.80;;;3.15;;
75400;SDS011;63974;47.538;18.972;2023-08-30T14:22:41;4.85;;;3.00;;
75400;SDS011;63974;47.538;18.972;2023-08-30T14:25:44;3.53;;;3.08;;
75400;SDS011;63974;47.538;18.972;2023-08-30T14:28:47;3.80;;;3.50;;
75400;SDS011;63974;47.538;18.972;2023-08-30T14:31:50;4.60;;;3.47;;
75400;SDS011;63974;47.538;18.972;2023-08-30T14:34:53;3.92;;;3.53;;
75400;SDS011;63974;47.538;18.972;2023-08-30T14:37:55;4.78;;;3.00;;
75400;SDS011;63974;47.538;18.972;2023-08-30T14:40:59;3.53;;;2.80;;
75400;SDS011;63974;47.538;18.972;2023-08-30T14:44:03;4.27;;;3.20;;
75400;SDS011;63974;47.538;18.972;2023-08-30T14:47:05;5.80;;;3.73;;
75400;SDS011;63974;47.538;18.972;2023-08-30T14:50:08;4.28;;;3.88;;
75400;SDS011;63974;47.538;18.972;2023-08-30T14:53:11;5.78;;;3.65;;
75400;SDS011;63974;47.538;18.972;2023-08-30T14:56:14;4.53;;;3.63;;
75400;SDS011;63974;47.538;18.972;2023-08-30T14:59:17;5.17;;;3.70;;
75400;SDS011;63974;47.538;18.972;2023-08-30T15:02:20;3.50;;;3.20;;
75400;SDS011;63974;47.538;18.972;2023-08-30T15:05:22;3.90;;;3.60;;
75400;SDS011;63974;47.538;18.972;2023-08-30T15:08:25;3.97;;;3.58;;
75400;SDS011;63974;47.538;18.972;2023-08-30T15:11:28;4.68;;;3.20;;
75400;SDS011;63974;47.538;18.972;2023-08-30T15:14:31;3.80;;;3.50;;
75400;SDS011;63974;47.538;18.972;2023-08-30T15:17:35;4.87;;;4.23;;
75400;SDS011;63974;47.538;18.972;2023-08-30T15:20:37;4.95;;;3.45;;
75400;SDS011;63974;47.538;18.972;2023-08-30T15:23:40;4.50;;;3.85;;
75400;SDS011;63974;47.538;18.972;2023-08-30T15:26:43;6.40;;;4.53;;
75400;SDS011;63974;47.538;18.972;2023-08-30T15:29:47;4.80;;;3.87;;
75400;SDS011;63974;47.538;18.972;2023-08-30T15:32:54;4.03;;;3.37;;
75400;SDS011;63974;47.538;18.972;2023-08-30T15:35:57;5.07;;;3.92;;
75400;SDS011;63974;47.538;18.972;2023-08-30T15:39:00;4.22;;;3.83;;
75400;SDS011;63974;47.538;18.972;2023-08-30T15:42:03;3.90;;;3.47;;
75400;SDS011;63974;47.538;18.972;2023-08-30T15:45:06;4.00;;;3.53;;
75400;SDS011;63974;47.538;18.972;2023-08-30T15:48:09;3.63;;;3.27;;
75400;SDS011;63974;47.538;18.972;2023-08-30T15:51:13;4.43;;;3.70;;
75400;SDS011;63974;47.538;18.972;2023-08-30T15:54:25;5.55;;;4.25;;
75400;SDS011;63974;47.538;18.972;2023-08-30T15:57:28;5.60;;;3.70;;
75400;SDS011;63974;47.538;18.972;2023-08-30T16:00:31;3.93;;;3.40;;
75400;SDS011;63974;47.538;18.972;2023-08-30T16:03:35;3.70;;;3.40;;
75400;SDS011;63974;47.538;18.972;2023-08-30T16:06:39;4.25;;;3.90;;
75400;SDS011;63974;47.538;18.972;2023-08-30T16:09:42;4.00;;;3.35;;
75400;SDS011;63974;47.538;18.972;2023-08-30T16:12:47;3.47;;;3.17;;
75400;SDS011;63974;47.538;18.972;2023-08-30T16:15:50;4.50;;;3.40;;
75400;SDS011;63974;47.538;18.972;2023-08-30T16:18:53;5.93;;;4.00;;
75400;SDS011;63974;47.538;18.972;2023-08-30T16:21:56;3.75;;;3.17;;
75400;SDS011;63974;47.538;18.972;2023-08-30T16:24:59;4.32;;;3.72;;
75400;SDS011;63974;47.538;18.972;2023-08-30T16:28:02;4.38;;;3.63;;
75400;SDS011;63974;47.538;18.972;2023-08-30T16:31:06;5.57;;;3.83;;
75400;SDS011;63974;47.538;18.972;2023-08-30T16:34:09;3.37;;;3.07;;
75400;SDS011;63974;47.538;18.972;2023-08-30T16:37:12;5.70;;;3.13;;
75400;SDS011;63974;47.538;18.972;2023-08-30T16:40:15;5.20;;;3.65;;
75400;SDS011;63974;47.538;18.972;2023-08-30T16:43:18;3.80;;;3.50;;
75400;SDS011;63974;47.538;18.972;2023-08-30T16:46:20;4.05;;;3.58;;
75400;SDS011;63974;47.538;18.972;2023-08-30T16:49:23;4.40;;;4.00;;
75400;SDS011;63974;47.538;18.972;2023-08-30T16:52:26;4.55;;;4.15;;
75400;SDS011;63974;47.538;18.972;2023-08-30T16:55:29;7.65;;;3.88;;
75400;SDS011;63974;47.538;18.972;2023-08-30T16:58:32;3.97;;;3.35;;
75400;SDS011;63974;47.538;18.972;2023-08-30T17:01:36;4.43;;;3.37;;
75400;SDS011;63974;47.538;18.972;2023-08-30T17:04:39;5.30;;;3.80;;
75400;SDS011;63974;47.538;18.972;2023-08-30T17:07:42;7.00;;;3.80;;
75400;SDS011;63974;47.538;18.972;2023-08-30T17:10:45;5.43;;;4.22;;
75400;SDS011;63974;47.538;18.972;2023-08-30T17:13:48;5.75;;;3.90;;
75400;SDS011;63974;47.538;18.972;2023-08-30T17:16:51;6.33;;;3.73;;
75400;SDS011;63974;47.538;18.972;2023-08-30T17:19:54;5.50;;;3.93;;
75400;SDS011;63974;47.538;18.972;2023-08-30T17:22:56;5.10;;;4.00;;
75400;SDS011;63974;47.538;18.972;2023-08-30T17:25:59;5.80;;;4.32;;
75400;SDS011;63974;47.538;18.972;2023-08-30T17:29:02;9.20;;;5.55;;
75400;SDS011;63974;47.538;18.972;2023-08-30T17:32:05;5.80;;;4.57;;
75400;SDS011;63974;47.538;18.972;2023-08-30T17:35:08;5.43;;;4.30;;
75400;SDS011;63974;47.538;18.972;2023-08-30T17:38:11;6.07;;;4.38;;
75400;SDS011;63974;47.538;18.972;2023-08-30T17:41:15;6.47;;;4.25;;
75400;SDS011;63974;47.538;18.972;2023-08-30T17:44:18;5.63;;;4.80;;
75400;SDS011;63974;47.538;18.972;2023-08-30T17:47:24;6.17;;;4.60;;
75400;SDS011;63974;47.538;18.972;2023-08-30T17:50:27;8.00;;;4.93;;
75400;SDS011;63974;47.538;18.972;2023-08-30T17:53:31;7.88;;;4.68;;
75400;SDS011;63974;47.538;18.972;2023-08-30T17:56:33;5.35;;;4.85;;
75400;SDS011;63974;47.538;18.972;2023-08-30T17:59:36;6.03;;;4.85;;
75400;SDS011;63974;47.538;18.972;2023-08-30T18:02:40;8.93;;;4.87;;
75400;SDS011;63974;47.538;18.972;2023-08-30T18:05:43;5.43;;;4.30;;
75400;SDS011;63974;47.538;18.972;2023-08-30T18:08:46;7.38;;;5.28;;
75400;SDS011;63974;47.538;18.972;2023-08-30T18:11:49;6.72;;;4.72;;
75400;SDS011;63974;47.538;18.972;2023-08-30T18:14:52;7.60;;;4.80;;
75400;SDS011;63974;47.538;18.972;2023-08-30T18:17:55;5.00;;;4.50;;
75400;SDS011;63974;47.538;18.972;2023-08-30T18:20:58;5.27;;;3.83;;
75400;SDS011;63974;47.538;18.972;2023-08-30T18:24:14;5.07;;;4.00;;
75400;SDS011;63974;47.538;18.972;2023-08-30T18:27:22;5.85;;;3.45;;
75400;SDS011;63974;47.538;18.972;2023-08-30T18:30:25;6.25;;;3.90;;
75400;SDS011;63974;47.538;18.972;2023-08-30T18:33:28;5.80;;;3.90;;
75400;SDS011;63974;47.538;18.972;2023-08-30T18:36:31;5.20;;;4.10;;
75400;SDS011;63974;47.538;18.972;2023-08-30T18:39:34;4.88;;;3.72;;
75400;SDS011;63974;47.538;18.972;2023-08-30T18:42:37;6.68;;;4.20;;
75400;SDS011;63974;47.538;18.972;2023-08-30T18:45:48;5.03;;;4.00;;
75400;SDS011;63974;47.538;18.972;2023-08-30T18:48:51;7.33;;;3.50;;
75400;SDS011;63974;47.538;18.972;2023-08-30T18:51:58;6.33;;;4.30;;
75400;SDS011;63974;47.538;18.972;2023-08-30T18:55:02;9.00;;;4.45;;
75400;SDS011;63974;47.538;18.972;2023-08-30T18:58:05;5.97;;;3.92;;
75400;SDS011;63974;47.538;18.972;2023-08-30T19:01:09;5.13;;;4.13;;
75400;SDS011;63974;47.538;18.972;2023-08-30T19:04:13;5.73;;;3.77;;
75400;SDS011;63974;47.538;18.972;2023-08-30T19:07:16;4.77;;;3.47;;
75400;SDS011;63974;47.538;18.972;2023-08-30T19:10:22;4.90;;;3.72;;
75400;SDS011;63974;47.538;18.972;2023-08-30T19:13:25;4.80;;;3.22;;
75400;SDS011;63974;47.538;18.972;2023-08-30T19:16:28;4.00;;;3.53;;
75400;SDS011;63974;47.538;18.972;2023-08-30T19:19:33;4.30;;;2.80;;
75400;SDS011;63974;47.538;18.972;2023-08-30T19:22:35;5.23;;;3.43;;